sensor_id;sensor_type;location;lat;lon;timestamp;pressure;altitude;pressure_sealevel;temperature;humidity
54369;BME280;40266;52.434;17.056;2023-12-20T00:02:40;99848.25;;;6.31;100.00
54369;BME280;40266;52.434;17.056;2023-12-20T00:05:33;99851.87;;;6.32;100.00
54369;BME280;40266;52.434;17.056;2023-12-20T00:08:58;99844.75;;;6.33;100.00
54369;BME280;40266;52.434;17.056;2023-12-20T00:12:03;99839.89;;;6.33;100.00
54369;BME280;40266;52.434;17.056;2023-12-20T00:15:18;99839.70;;;6.33;100.00
54369;BME280;40266;52.434;17.056;2023-12-20T00:18:22;99833.63;;;6.34;100.00
54369;BME280;40266;52.434;17.056;2023-12-20T00:21:11;99834.15;;;6.34;100.00
54369;BME280;40266;52.434;17.056;2023-12-20T00:24:08;99833.98;;;6.33;100.00
54369;BME280;40266;52.434;17.056;2023-12-20T00:27:02;99837.28;;;6.34;100.00
54369;BME280;40266;52.434;17.056;2023-12-20T00:33:09;99840.06;;;6.33;100.00
54369;BME280;40266;52.434;17.056;2023-12-20T00:35:59;99835.73;;;6.33;100.00
54369;BME280;40266;52.434;17.056;2023-12-20T00:38:55;99831.23;;;6.32;100.00
54369;BME280;40266;52.434;17.056;2023-12-20T00:41:54;99831.59;;;6.31;100.00
54369;BME280;40266;52.434;17.056;2023-12-20T00:45:04;99833.52;;;6.31;100.00
54369;BME280;40266;52.434;17.056;2023-12-20T00:48:30;99833.02;;;6.28;100.00
54369;BME280;40266;52.434;17.056;2023-12-20T00:51:18;99830.23;;;6.29;100.00
54369;BME280;40266;52.434;17.056;2023-12-20T00:54:17;99831.46;;;6.28;100.00
54369;BME280;40266;52.434;17.056;2023-12-20T00:57:19;99828.02;;;6.27;100.00
54369;BME280;40266;52.434;17.056;2023-12-20T01:00:07;99825.59;;;6.26;100.00
54369;BME280;40266;52.434;17.056;2023-12-20T01:03:21;99825.06;;;6.27;100.00
54369;BME280;40266;52.434;17.056;2023-12-20T01:06:27;99820.36;;;6.28;100.00
54369;BME280;40266;52.434;17.056;2023-12-20T01:09:19;99824.00;;;6.28;100.00
54369;BME280;40266;52.434;17.056;2023-12-20T01:12:37;99819.31;;;6.28;100.00
54369;BME280;40266;52.434;17.056;2023-12-20T01:29:11;99810.14;;;6.27;100.00
54369;BME280;40266;52.434;17.056;2023-12-20T01:32:02;99811.02;;;6.27;100.00
54369;BME280;40266;52.434;17.056;2023-12-20T01:35:29;99807.04;;;6.26;100.00
54369;BME280;40266;52.434;17.056;2023-12-20T01:38:33;99805.65;;;6.26;100.00
54369;BME280;40266;52.434;17.056;2023-12-20T01:41:33;99805.69;;;6.23;100.00
54369;BME280;40266;52.434;17.056;2023-12-20T01:44:37;99797.40;;;6.21;100.00
54369;BME280;40266;52.434;17.056;2023-12-20T01:58:02;99778.05;;;6.16;100.00
54369;BME280;40266;52.434;17.056;2023-12-20T02:01:16;99776.52;;;6.14;100.00
54369;BME280;40266;52.434;17.056;2023-12-20T02:04:12;99775.67;;;6.12;100.00
54369;BME280;40266;52.434;17.056;2023-12-20T02:07:27;99775.86;;;6.11;100.00
54369;BME280;40266;52.434;17.056;2023-12-20T02:10:39;99768.08;;;6.09;100.00
54369;BME280;40266;52.434;17.056;2023-12-20T02:13:47;99765.83;;;6.09;100.00
54369;BME280;40266;52.434;17.056;2023-12-20T02:16:50;99762.36;;;6.08;100.00
54369;BME280;40266;52.434;17.056;2023-12-20T02:23:58;99762.59;;;6.05;100.00
54369;BME280;40266;52.434;17.056;2023-12-20T02:27:20;99762.11;;;6.03;100.00
54369;BME280;40266;52.434;17.056;2023-12-20T02:30:37;99759.15;;;6.03;100.00
54369;BME280;40266;52.434;17.056;2023-12-20T02:33:35;99754.65;;;6.03;100.00
54369;BME280;40266;52.434;17.056;2023-12-20T02:40:31;99751.20;;;6.02;100.00
54369;BME280;40266;52.434;17.056;2023-12-20T02:50:40;99741.15;;;6.01;100.00
54369;BME280;40266;52.434;17.056;2023-12-20T03:00:48;99746.22;;;5.98;100.00
54369;BME280;40266;52.434;17.056;2023-12-20T03:03:52;99742.77;;;5.97;100.00
54369;BME280;40266;52.434;17.056;2023-12-20T03:07:09;99744.33;;;5.97;100.00
54369;BME280;40266;52.434;17.056;2023-12-20T03:10:25;99741.22;;;5.96;100.00
54369;BME280;40266;52.434;17.056;2023-12-20T03:13:54;99738.11;;;5.93;100.00
54369;BME280;40266;52.434;17.056;2023-12-20T03:17:26;99732.05;;;5.93;100.00
54369;BME280;40266;52.434;17.056;2023-12-20T03:20:43;99731.36;;;5.93;100.00
54369;BME280;40266;52.434;17.056;2023-12-20T03:24:04;99728.08;;;5.92;100.00
54369;BME280;40266;52.434;17.056;2023-12-20T03:27:22;99722.36;;;5.91;100.00
54369;BME280;40266;52.434;17.056;2023-12-20T03:30:45;99723.42;;;5.90;100.00
54369;BME280;40266;52.434;17.056;2023-12-20T03:37:40;99715.01;;;5.84;100.00
54369;BME280;40266;52.434;17.056;2023-12-20T03:44:41;99723.85;;;5.84;100.00
54369;BME280;40266;52.434;17.056;2023-12-20T03:54:39;99725.59;;;5.82;100.00
54369;BME280;40266;52.434;17.056;2023-12-20T04:01:31;99718.36;;;5.81;100.00
54369;BME280;40266;52.434;17.056;2023-12-20T04:04:43;99715.95;;;5.79;100.00
54369;BME280;40266;52.434;17.056;2023-12-20T04:08:01;99718.38;;;5.79;100.00
54369;BME280;40266;52.434;17.056;2023-12-20T04:11:08;99719.41;;;5.78;100.00
54369;BME280;40266;52.434;17.056;2023-12-20T04:14:06;99717.52;;;5.78;100.00
54369;BME280;40266;52.434;17.056;2023-12-20T04:17:21;99722.55;;;5.78;100.00
54369;BME280;40266;52.434;17.056;2023-12-20T04:21:13;99714.40;;;5.78;100.00
54369;BME280;40266;52.434;17.056;2023-12-20T04:31:28;99710.07;;;5.78;100.00
54369;BME280;40266;52.434;17.056;2023-12-20T04:34:32;99708.33;;;5.79;100.00
54369;BME280;40266;52.434;17.056;2023-12-20T04:41:11;99704.50;;;5.78;100.00
54369;BME280;40266;52.434;17.056;2023-12-20T04:44:10;99701.91;;;5.79;100.00
54369;BME280;40266;52.434;17.056;2023-12-20T04:47:44;99703.65;;;5.79;100.00
54369;BME280;40266;52.434;17.056;2023-12-20T04:50:44;99702.97;;;5.77;100.00
54369;BME280;40266;52.434;17.056;2023-12-20T04:53:51;99700.21;;;5.76;100.00
54369;BME280;40266;52.434;17.056;2023-12-20T04:57:03;99698.14;;;5.75;100.00
54369;BME280;40266;52.434;17.056;2023-12-20T05:00:17;99699.52;;;5.77;100.00
54369;BME280;40266;52.434;17.056;2023-12-20T05:03:40;99702.79;;;5.78;100.00
54369;BME280;40266;52.434;17.056;2023-12-20T05:06:46;99706.45;;;5.76;100.00
54369;BME280;40266;52.434;17.056;2023-12-20T05:13:07;99707.86;;;5.74;100.00
54369;BME280;40266;52.434;17.056;2023-12-20T05:36:50;99711.66;;;5.75;100.00
54369;BME280;40266;52.434;17.056;2023-12-20T05:43:03;99708.02;;;5.76;100.00
54369;BME280;40266;52.434;17.056;2023-12-20T05:45:56;99705.58;;;5.76;100.00
54369;BME280;40266;52.434;17.056;2023-12-20T05:48:42;99704.20;;;5.76;100.00
54369;BME280;40266;52.434;17.056;2023-12-20T05:51:37;99704.38;;;5.76;100.00
54369;BME280;40266;52.434;17.056;2023-12-20T05:54:49;99702.65;;;5.76;100.00
54369;BME280;40266;52.434;17.056;2023-12-20T05:57:52;99698.31;;;5.75;100.00
54369;BME280;40266;52.434;17.056;2023-12-20T06:01:14;99698.67;;;5.76;100.00
54369;BME280;40266;52.434;17.056;2023-12-20T06:03:59;99695.02;;;5.76;100.00
54369;BME280;40266;52.434;17.056;2023-12-20T06:06:53;99697.44;;;5.77;100.00
54369;BME280;40266;52.434;17.056;2023-12-20T06:09:40;99695.02;;;5.77;100.00
54369;BME280;40266;52.434;17.056;2023-12-20T06:13:06;99695.35;;;5.77;100.00
54369;BME280;40266;52.434;17.056;2023-12-20T06:16:07;99692.73;;;5.78;100.00
54369;BME280;40266;52.434;17.056;2023-12-20T06:19:32;99693.97;;;5.77;100.00
54369;BME280;40266;52.434;17.056;2023-12-20T06:22:29;99687.23;;;5.76;100.00
54369;BME280;40266;52.434;17.056;2023-12-20T06:28:51;99690.73;;;5.74;100.00
54369;BME280;40266;52.434;17.056;2023-12-20T06:32:05;99680.70;;;5.70;100.00
54369;BME280;40266;52.434;17.056;2023-12-20T06:35:23;99695.64;;;5.68;100.00
54369;BME280;40266;52.434;17.056;2023-12-20T06:38:39;99702.23;;;5.67;100.00
54369;BME280;40266;52.434;17.056;2023-12-20T06:41:31;99707.60;;;5.67;100.00
54369;BME280;40266;52.434;17.056;2023-12-20T06:44:38;99709.50;;;5.67;100.00
54369;BME280;40266;52.434;17.056;2023-12-20T06:47:45;99707.61;;;5.66;100.00
54369;BME280;40266;52.434;17.056;2023-12-20T06:51:12;99709.55;;;5.65;100.00
54369;BME280;40266;52.434;17.056;2023-12-20T06:54:45;99706.62;;;5.63;100.00
54369;BME280;40266;52.434;17.056;2023-12-20T06:58:01;99717.21;;;5.62;100.00
54369;BME280;40266;52.434;17.056;2023-12-20T07:01:15;99717.39;;;5.61;100.00
54369;BME280;40266;52.434;17.056;2023-12-20T07:04:26;99723.64;;;5.60;100.00
54369;BME280;40266;52.434;17.056;2023-12-20T07:07:14;99718.95;;;5.61;100.00
54369;BME280;40266;52.434;17.056;2023-12-20T07:09:59;99722.26;;;5.59;100.00
54369;BME280;40266;52.434;17.056;2023-12-20T07:20:00;99742.92;;;5.56;100.00
54369;BME280;40266;52.434;17.056;2023-12-20T07:26:57;99748.84;;;5.52;100.00
54369;BME280;40266;52.434;17.056;2023-12-20T07:30:03;99756.48;;;5.51;100.00
54369;BME280;40266;52.434;17.056;2023-12-20T07:33:14;99759.94;;;5.51;100.00
54369;BME280;40266;52.434;17.056;2023-12-20T07:36:21;99759.95;;;5.50;100.00
54369;BME280;40266;52.434;17.056;2023-12-20T07:46:22;99761.20;;;5.48;100.00
54369;BME280;40266;52.434;17.056;2023-12-20T07:59:59;99756.80;;;5.53;100.00
54369;BME280;40266;52.434;17.056;2023-12-20T08:02:52;99751.92;;;5.55;100.00
54369;BME280;40266;52.434;17.056;2023-12-20T08:09:13;99751.89;;;5.58;100.00
54369;BME280;40266;52.434;17.056;2023-12-20T08:11:59;99749.11;;;5.59;100.00
54369;BME280;40266;52.434;17.056;2023-12-20T08:15:06;99743.73;;;5.60;100.00
54369;BME280;40266;52.434;17.056;2023-12-20T08:18:18;99738.67;;;5.63;100.00
54369;BME280;40266;52.434;17.056;2023-12-20T08:25:02;99728.73;;;5.69;100.00
54369;BME280;40266;52.434;17.056;2023-12-20T08:28:17;99729.05;;;5.70;100.00
54369;BME280;40266;52.434;17.056;2023-12-20T08:35:05;99733.59;;;5.66;100.00
54369;BME280;40266;52.434;17.056;2023-12-20T08:38:14;99737.27;;;5.65;100.00
54369;BME280;40266;52.434;17.056;2023-12-20T08:41:37;99740.08;;;5.61;100.00
54369;BME280;40266;52.434;17.056;2023-12-20T08:51:13;99744.55;;;5.48;100.00
54369;BME280;40266;52.434;17.056;2023-12-20T08:54:28;99744.60;;;5.45;100.00
54369;BME280;40266;52.434;17.056;2023-12-20T08:57:14;99737.02;;;5.42;100.00
54369;BME280;40266;52.434;17.056;2023-12-20T09:00:17;99736.53;;;5.38;100.00
54369;BME280;40266;52.434;17.056;2023-12-20T09:03:20;99739.16;;;5.36;100.00
54369;BME280;40266;52.434;17.056;2023-12-20T09:09:52;99736.58;;;5.34;100.00
54369;BME280;40266;52.434;17.056;2023-12-20T09:12:48;99737.45;;;5.33;100.00
54369;BME280;40266;52.434;17.056;2023-12-20T09:15:44;99728.79;;;5.34;100.00
54369;BME280;40266;52.434;17.056;2023-12-20T09:19:32;99721.29;;;5.38;100.00
54369;BME280;40266;52.434;17.056;2023-12-20T09:22:12;99717.81;;;5.40;100.00
54369;BME280;40266;52.434;17.056;2023-12-20T09:25:04;99715.73;;;5.40;100.00
54369;BME280;40266;52.434;17.056;2023-12-20T09:28:09;99715.21;;;5.40;100.00
54369;BME280;40266;52.434;17.056;2023-12-20T09:31:26;99718.88;;;5.39;100.00
54369;BME280;40266;52.434;17.056;2023-12-20T09:34:33;99716.95;;;5.40;100.00
54369;BME280;40266;52.434;17.056;2023-12-20T09:44:46;99721.11;;;5.40;100.00
54369;BME280;40266;52.434;17.056;2023-12-20T09:47:50;99713.48;;;5.41;100.00
54369;BME280;40266;52.434;17.056;2023-12-20T09:54:50;99711.70;;;5.59;100.00
54369;BME280;40266;52.434;17.056;2023-12-20T09:57:56;99708.59;;;5.71;100.00
54369;BME280;40266;52.434;17.056;2023-12-20T10:01:06;99707.08;;;5.81;100.00
54369;BME280;40266;52.434;17.056;2023-12-20T10:06:53;99696.48;;;5.83;100.00
54369;BME280;40266;52.434;17.056;2023-12-20T10:09:39;99695.96;;;5.83;100.00
54369;BME280;40266;52.434;17.056;2023-12-20T10:16:29;99683.84;;;5.83;100.00
54369;BME280;40266;52.434;17.056;2023-12-20T10:23:15;99666.90;;;5.91;100.00
54369;BME280;40266;52.434;17.056;2023-12-20T10:26:05;99659.23;;;5.97;100.00
54369;BME280;40266;52.434;17.056;2023-12-20T10:29:23;99662.14;;;6.01;100.00
54369;BME280;40266;52.434;17.056;2023-12-20T10:32:48;99664.73;;;6.00;100.00
54369;BME280;40266;52.434;17.056;2023-12-20T10:35:37;99661.66;;;5.98;100.00
54369;BME280;40266;52.434;17.056;2023-12-20T10:42:05;99650.80;;;5.91;100.00
54369;BME280;40266;52.434;17.056;2023-12-20T10:48:32;99648.16;;;5.83;100.00
54369;BME280;40266;52.434;17.056;2023-12-20T10:51:40;99644.39;;;5.78;100.00
54369;BME280;40266;52.434;17.056;2023-12-20T10:55:04;99646.73;;;5.73;100.00
54369;BME280;40266;52.434;17.056;2023-12-20T10:58:00;99639.48;;;5.70;100.00
54369;BME280;40266;52.434;17.056;2023-12-20T11:04:47;99626.44;;;5.62;100.00
54369;BME280;40266;52.434;17.056;2023-12-20T11:15:19;99612.05;;;5.63;100.00
54369;BME280;40266;52.434;17.056;2023-12-20T11:18:15;99602.48;;;5.65;100.00
54369;BME280;40266;52.434;17.056;2023-12-20T11:21:29;99600.77;;;5.64;100.00
54369;BME280;40266;52.434;17.056;2023-12-20T11:31:39;99582.98;;;5.59;100.00
54369;BME280;40266;52.434;17.056;2023-12-20T11:34:37;99578.70;;;5.58;100.00
54369;BME280;40266;52.434;17.056;2023-12-20T11:37:52;99572.98;;;5.58;100.00
54369;BME280;40266;52.434;17.056;2023-12-20T11:40:58;99571.62;;;5.56;100.00
54369;BME280;40266;52.434;17.056;2023-12-20T11:46:54;99558.38;;;5.62;100.00
54369;BME280;40266;52.434;17.056;2023-12-20T11:53:07;99554.98;;;5.67;100.00
54369;BME280;40266;52.434;17.056;2023-12-20T11:55:56;99555.70;;;5.66;100.00
54369;BME280;40266;52.434;17.056;2023-12-20T11:59:10;99557.83;;;5.63;100.00
54369;BME280;40266;52.434;17.056;2023-12-20T12:02:13;99553.41;;;5.58;100.00
54369;BME280;40266;52.434;17.056;2023-12-20T12:05:01;99547.20;;;5.56;100.00
54369;BME280;40266;52.434;17.056;2023-12-20T12:11:28;99533.54;;;5.55;100.00
54369;BME280;40266;52.434;17.056;2023-12-20T12:14:54;99527.16;;;5.53;100.00
54369;BME280;40266;52.434;17.056;2023-12-20T12:18:08;99523.37;;;5.51;100.00
54369;BME280;40266;52.434;17.056;2023-12-20T12:21:04;99520.09;;;5.50;100.00
54369;BME280;40266;52.434;17.056;2023-12-20T12:24:23;99513.52;;;5.50;100.00
54369;BME280;40266;52.434;17.056;2023-12-20T12:27:29;99511.03;;;5.54;100.00
54369;BME280;40266;52.434;17.056;2023-12-20T12:30:55;99503.73;;;5.56;100.00
54369;BME280;40266;52.434;17.056;2023-12-20T12:34:22;99499.05;;;5.56;100.00
54369;BME280;40266;52.434;17.056;2023-12-20T12:37:29;99489.54;;;5.55;100.00
54369;BME280;40266;52.434;17.056;2023-12-20T12:40:44;99483.66;;;5.55;100.00
54369;BME280;40266;52.434;17.056;2023-12-20T12:43:41;99485.62;;;5.51;100.00
54369;BME280;40266;52.434;17.056;2023-12-20T12:46:56;99479.92;;;5.50;100.00
54369;BME280;40266;52.434;17.056;2023-12-20T12:53:12;99473.20;;;5.48;100.00
54369;BME280;40266;52.434;17.056;2023-12-20T12:56:46;99468.77;;;5.44;100.00
54369;BME280;40266;52.434;17.056;2023-12-20T13:03:05;99466.86;;;5.43;100.00
54369;BME280;40266;52.434;17.056;2023-12-20T13:06:20;99466.17;;;5.44;100.00
54369;BME280;40266;52.434;17.056;2023-12-20T13:09:05;99463.77;;;5.43;100.00
54369;BME280;40266;52.434;17.056;2023-12-20T13:12:44;99465.48;;;5.44;100.00
54369;BME280;40266;52.434;17.056;2023-12-20T13:15:32;99466.52;;;5.44;100.00
54369;BME280;40266;52.434;17.056;2023-12-20T13:18:45;99453.67;;;5.45;100.00
54369;BME280;40266;52.434;17.056;2023-12-20T13:21:28;99450.18;;;5.47;100.00
54369;BME280;40266;52.434;17.056;2023-12-20T13:24:34;99445.86;;;5.46;100.00
54369;BME280;40266;52.434;17.056;2023-12-20T13:27:47;99434.98;;;5.45;100.00
54369;BME280;40266;52.434;17.056;2023-12-20T13:30:36;99431.55;;;5.43;100.00
54369;BME280;40266;52.434;17.056;2023-12-20T13:33:25;99417.05;;;5.41;100.00
54369;BME280;40266;52.434;17.056;2023-12-20T13:36:33;99424.17;;;5.38;100.00
54369;BME280;40266;52.434;17.056;2023-12-20T13:39:31;99431.48;;;5.37;100.00
54369;BME280;40266;52.434;17.056;2023-12-20T13:42:55;99429.75;;;5.37;100.00
54369;BME280;40266;52.434;17.056;2023-12-20T13:46:04;99423.39;;;5.34;100.00
54369;BME280;40266;52.434;17.056;2023-12-20T13:49:08;99424.58;;;5.35;100.00
54369;BME280;40266;52.434;17.056;2023-12-20T13:56:10;99424.08;;;5.34;100.00
54369;BME280;40266;52.434;17.056;2023-12-20T13:59:28;99405.56;;;5.33;100.00
54369;BME280;40266;52.434;17.056;2023-12-20T14:06:05;99401.62;;;5.31;100.00
54369;BME280;40266;52.434;17.056;2023-12-20T14:09:07;99404.28;;;5.27;100.00
54369;BME280;40266;52.434;17.056;2023-12-20T14:12:26;99400.48;;;5.26;100.00
54369;BME280;40266;52.434;17.056;2023-12-20T14:16:10;99398.77;;;5.25;100.00
54369;BME280;40266;52.434;17.056;2023-12-20T14:22:53;99391.02;;;5.23;100.00
54369;BME280;40266;52.434;17.056;2023-12-20T14:25:41;99384.65;;;5.21;100.00
54369;BME280;40266;52.434;17.056;2023-12-20T14:28:34;99387.61;;;5.20;100.00
54369;BME280;40266;52.434;17.056;2023-12-20T14:32:11;99380.49;;;5.21;100.00
54369;BME280;40266;52.434;17.056;2023-12-20T14:35:13;99379.09;;;5.23;100.00
54369;BME280;40266;52.434;17.056;2023-12-20T14:41:54;99369.19;;;5.24;100.00
54369;BME280;40266;52.434;17.056;2023-12-20T14:51:56;99351.52;;;5.26;100.00
54369;BME280;40266;52.434;17.056;2023-12-20T14:55:31;99346.83;;;5.25;100.00
54369;BME280;40266;52.434;17.056;2023-12-20T14:58:55;99342.55;;;5.24;100.00
54369;BME280;40266;52.434;17.056;2023-12-20T15:02:20;99341.92;;;5.20;100.00
54369;BME280;40266;52.434;17.056;2023-12-20T15:05:53;99339.09;;;5.14;100.00
54369;BME280;40266;52.434;17.056;2023-12-20T15:27:20;99331.58;;;4.95;100.00
54369;BME280;40266;52.434;17.056;2023-12-20T15:34:20;99327.64;;;4.93;100.00
54369;BME280;40266;52.434;17.056;2023-12-20T15:44:51;99330.30;;;4.90;100.00
54369;BME280;40266;52.434;17.056;2023-12-20T15:55:06;99353.34;;;4.65;100.00
54369;BME280;40266;52.434;17.056;2023-12-20T16:01:39;99341.98;;;4.35;100.00
54369;BME280;40266;52.434;17.056;2023-12-20T16:04:51;99342.62;;;4.26;100.00
54369;BME280;40266;52.434;17.056;2023-12-20T16:08:00;99346.39;;;4.16;100.00
54369;BME280;40266;52.434;17.056;2023-12-20T16:14:57;99353.29;;;4.01;100.00
54369;BME280;40266;52.434;17.056;2023-12-20T16:42:56;99350.67;;;2.99;100.00
54369;BME280;40266;52.434;17.056;2023-12-20T16:56:21;99358.00;;;2.63;100.00
54369;BME280;40266;52.434;17.056;2023-12-20T17:06:47;99367.04;;;2.53;100.00
54369;BME280;40266;52.434;17.056;2023-12-20T17:10:25;99368.23;;;2.54;100.00
54369;BME280;40266;52.434;17.056;2023-12-20T17:27:54;99358.59;;;2.79;100.00
54369;BME280;40266;52.434;17.056;2023-12-20T17:31:17;99362.34;;;2.84;100.00
54369;BME280;40266;52.434;17.056;2023-12-20T17:41:51;99363.11;;;2.97;100.00
54369;BME280;40266;52.434;17.056;2023-12-20T17:56:14;99369.11;;;3.23;100.00
54369;BME280;40266;52.434;17.056;2023-12-20T18:09:52;99383.76;;;3.25;100.00
54369;BME280;40266;52.434;17.056;2023-12-20T18:13:25;99386.17;;;3.26;100.00
54369;BME280;40266;52.434;17.056;2023-12-20T18:16:57;99391.48;;;3.29;100.00
54369;BME280;40266;52.434;17.056;2023-12-20T18:31:12;99406.58;;;3.41;100.00
54369;BME280;40266;52.434;17.056;2023-12-20T18:49:21;99432.91;;;3.28;100.00
54369;BME280;40266;52.434;17.056;2023-12-20T19:00:09;99441.69;;;3.32;100.00
54369;BME280;40266;52.434;17.056;2023-12-20T19:07:18;99440.93;;;3.39;100.00
54369;BME280;40266;52.434;17.056;2023-12-20T19:10:18;99443.86;;;3.41;100.00
54369;BME280;40266;52.434;17.056;2023-12-20T19:35:08;99443.23;;;3.32;100.00
54369;BME280;40266;52.434;17.056;2023-12-20T19:38:34;99437.39;;;3.29;100.00
54369;BME280;40266;52.434;17.056;2023-12-20T19:42:18;99431.38;;;3.26;100.00
54369;BME280;40266;52.434;17.056;2023-12-20T19:45:42;99435.52;;;3.25;100.00
54369;BME280;40266;52.434;17.056;2023-12-20T19:49:26;99432.27;;;3.23;100.00
54369;BME280;40266;52.434;17.056;2023-12-20T19:56:07;99434.35;;;3.20;100.00
54369;BME280;40266;52.434;17.056;2023-12-20T20:03:19;99433.98;;;3.22;100.00
54369;BME280;40266;52.434;17.056;2023-12-20T20:10:31;99435.33;;;3.28;100.00
54369;BME280;40266;52.434;17.056;2023-12-20T20:31:29;99425.59;;;3.39;100.00
54369;BME280;40266;52.434;17.056;2023-12-20T20:49:05;99449.39;;;3.41;100.00
54369;BME280;40266;52.434;17.056;2023-12-20T20:52:31;99453.36;;;3.39;100.00
54369;BME280;40266;52.434;17.056;2023-12-20T20:55:47;99460.48;;;3.35;100.00
54369;BME280;40266;52.434;17.056;2023-12-20T20:59:03;99462.58;;;3.30;100.00
54369;BME280;40266;52.434;17.056;2023-12-20T21:02:26;99463.82;;;3.28;100.00
54369;BME280;40266;52.434;17.056;2023-12-20T21:05:53;99467.09;;;3.27;100.00
54369;BME280;40266;52.434;17.056;2023-12-20T21:09:12;99466.73;;;3.29;100.00
54369;BME280;40266;52.434;17.056;2023-12-20T21:12:17;99465.84;;;3.31;100.00
54369;BME280;40266;52.434;17.056;2023-12-20T21:19:07;99457.00;;;3.37;100.00
54369;BME280;40266;52.434;17.056;2023-12-20T21:25:59;99451.98;;;3.40;100.00
54369;BME280;40266;52.434;17.056;2023-12-20T21:36:11;99450.19;;;3.48;100.00
54369;BME280;40266;52.434;17.056;2023-12-20T21:57:22;99437.96;;;3.64;100.00
54369;BME280;40266;52.434;17.056;2023-12-20T22:10:58;99424.08;;;3.73;100.00
54369;BME280;40266;52.434;17.056;2023-12-20T22:14:23;99424.20;;;3.76;100.00
54369;BME280;40266;52.434;17.056;2023-12-20T22:25:02;99421.39;;;3.82;100.00
54369;BME280;40266;52.434;17.056;2023-12-20T22:27:57;99414.80;;;3.85;100.00
54369;BME280;40266;52.434;17.056;2023-12-20T22:30:56;99411.85;;;3.86;100.00
54369;BME280;40266;52.434;17.056;2023-12-20T22:40:12;99401.63;;;3.90;100.00
54369;BME280;40266;52.434;17.056;2023-12-20T22:46:24;99386.70;;;3.95;100.00
54369;BME280;40266;52.434;17.056;2023-12-20T23:00:13;99380.48;;;3.95;100.00
54369;BME280;40266;52.434;17.056;2023-12-20T23:03:19;99372.58;;;3.93;100.00
54369;BME280;40266;52.434;17.056;2023-12-20T23:13:48;99362.05;;;3.91;100.00
54369;BME280;40266;52.434;17.056;2023-12-20T23:20:55;99339.40;;;3.94;100.00
54369;BME280;40266;52.434;17.056;2023-12-20T23:24:19;99336.11;;;3.93;100.00
54369;BME280;40266;52.434;17.056;2023-12-20T23:27:48;99335.60;;;3.93;100.00
54369;BME280;40266;52.434;17.056;2023-12-20T23:34:41;99334.89;;;3.95;100.00
54369;BME280;40266;52.434;17.056;2023-12-20T23:38:23;99332.64;;;3.95;100.00
54369;BME280;40266;52.434;17.056;2023-12-20T23:41:40;99330.90;;;3.95;100.00
